sensor_id;sensor_type;location;lat;lon;timestamp;P1;durP1;ratioP1;P2;durP2;ratioP2
9815;SDS011;4947;44.526;11.360;2023-04-01T00:02:02;13.10;;;6.80;;
9815;SDS011;4947;44.526;11.360;2023-04-01T00:04:29;13.05;;;6.85;;
9815;SDS011;4947;44.526;11.360;2023-04-01T00:06:57;10.18;;;6.47;;
9815;SDS011;4947;44.526;11.360;2023-04-01T00:09:26;12.05;;;6.75;;
9815;SDS011;4947;44.526;11.360;2023-04-01T00:11:53;11.43;;;6.72;;
9815;SDS011;4947;44.526;11.360;2023-04-01T00:14:21;9.90;;;6.53;;
9815;SDS011;4947;44.526;11.360;2023-04-01T00:16:48;11.18;;;7.20;;
9815;SDS011;4947;44.526;11.360;2023-04-01T00:19:16;10.25;;;6.55;;
9815;SDS011;4947;44.526;11.360;2023-04-01T00:21:43;9.02;;;7.18;;
9815;SDS011;4947;44.526;11.360;2023-04-01T00:24:11;8.45;;;7.30;;
9815;SDS011;4947;44.526;11.360;2023-04-01T00:26:40;10.07;;;7.13;;
9815;SDS011;4947;44.526;11.360;2023-04-01T00:29:07;14.10;;;7.45;;
9815;SDS011;4947;44.526;11.360;2023-04-01T00:31:35;11.25;;;6.57;;
9815;SDS011;4947;44.526;11.360;2023-04-01T00:34:02;9.20;;;6.80;;
9815;SDS011;4947;44.526;11.360;2023-04-01T00:36:30;11.45;;;6.60;;
9815;SDS011;4947;44.526;11.360;2023-04-01T00:38:57;18.92;;;6.70;;
9815;SDS011;4947;44.526;11.360;2023-04-01T00:41:25;12.70;;;7.70;;
9815;SDS011;4947;44.526;11.360;2023-04-01T00:46:43;15.73;;;7.50;;
9815;SDS011;4947;44.526;11.360;2023-04-01T00:49:10;11.77;;;7.70;;
9815;SDS011;4947;44.526;11.360;2023-04-01T00:51:38;12.48;;;7.22;;
9815;SDS011;4947;44.526;11.360;2023-04-01T00:54:07;11.77;;;7.47;;
9815;SDS011;4947;44.526;11.360;2023-04-01T00:56:37;13.02;;;7.60;;
9815;SDS011;4947;44.526;11.360;2023-04-01T00:59:10;10.15;;;8.18;;
9815;SDS011;4947;44.526;11.360;2023-04-01T01:01:41;10.55;;;7.80;;
9815;SDS011;4947;44.526;11.360;2023-04-01T01:04:19;9.98;;;7.45;;
9815;SDS011;4947;44.526;11.360;2023-04-01T01:06:54;14.25;;;7.70;;
9815;SDS011;4947;44.526;11.360;2023-04-01T01:09:30;13.57;;;7.70;;
9815;SDS011;4947;44.526;11.360;2023-04-01T01:12:06;12.65;;;8.10;;
9815;SDS011;4947;44.526;11.360;2023-04-01T01:14:43;10.38;;;7.50;;
9815;SDS011;4947;44.526;11.360;2023-04-01T01:17:21;13.15;;;7.97;;
9815;SDS011;4947;44.526;11.360;2023-04-01T01:23:15;11.55;;;8.05;;
9815;SDS011;4947;44.526;11.360;2023-04-01T01:26:11;13.20;;;7.72;;
9815;SDS011;4947;44.526;11.360;2023-04-01T01:29:11;10.52;;;8.13;;
9815;SDS011;4947;44.526;11.360;2023-04-01T01:32:05;14.55;;;8.18;;
9815;SDS011;4947;44.526;11.360;2023-04-01T01:34:40;11.43;;;8.10;;
9815;SDS011;4947;44.526;11.360;2023-04-01T01:37:15;10.52;;;8.43;;
9815;SDS011;4947;44.526;11.360;2023-04-01T01:39:45;11.88;;;8.52;;
9815;SDS011;4947;44.526;11.360;2023-04-01T01:42:26;13.95;;;8.75;;
9815;SDS011;4947;44.526;11.360;2023-04-01T01:44:56;18.67;;;10.00;;
9815;SDS011;4947;44.526;11.360;2023-04-01T01:47:26;14.98;;;9.43;;
9815;SDS011;4947;44.526;11.360;2023-04-01T01:49:55;17.38;;;9.38;;
9815;SDS011;4947;44.526;11.360;2023-04-01T01:52:26;15.63;;;10.20;;
9815;SDS011;4947;44.526;11.360;2023-04-01T01:54:56;18.70;;;10.73;;
9815;SDS011;4947;44.526;11.360;2023-04-01T01:57:24;15.75;;;10.32;;
9815;SDS011;4947;44.526;11.360;2023-04-01T01:59:56;14.15;;;10.07;;
9815;SDS011;4947;44.526;11.360;2023-04-01T02:02:28;21.73;;;10.90;;
9815;SDS011;4947;44.526;11.360;2023-04-01T02:04:57;14.85;;;10.77;;
9815;SDS011;4947;44.526;11.360;2023-04-01T02:07:27;17.23;;;10.23;;
9815;SDS011;4947;44.526;11.360;2023-04-01T02:09:59;14.40;;;10.35;;
9815;SDS011;4947;44.526;11.360;2023-04-01T02:12:27;19.42;;;10.98;;
9815;SDS011;4947;44.526;11.360;2023-04-01T02:14:57;20.65;;;11.55;;
9815;SDS011;4947;44.526;11.360;2023-04-01T02:17:30;14.98;;;10.32;;
9815;SDS011;4947;44.526;11.360;2023-04-01T02:20:00;20.92;;;10.68;;
9815;SDS011;4947;44.526;11.360;2023-04-01T02:22:33;15.80;;;10.38;;
9815;SDS011;4947;44.526;11.360;2023-04-01T02:25:04;15.40;;;10.32;;
9815;SDS011;4947;44.526;11.360;2023-04-01T02:27:34;19.27;;;11.13;;
9815;SDS011;4947;44.526;11.360;2023-04-01T02:30:01;22.75;;;11.63;;
9815;SDS011;4947;44.526;11.360;2023-04-01T02:32:29;22.30;;;12.82;;
9815;SDS011;4947;44.526;11.360;2023-04-01T02:34:59;21.23;;;12.60;;
9815;SDS011;4947;44.526;11.360;2023-04-01T02:37:32;22.13;;;13.18;;
9815;SDS011;4947;44.526;11.360;2023-04-01T02:39:59;20.35;;;13.30;;
9815;SDS011;4947;44.526;11.360;2023-04-01T02:42:27;27.70;;;13.13;;
9815;SDS011;4947;44.526;11.360;2023-04-01T02:44:55;19.65;;;13.07;;
9815;SDS011;4947;44.526;11.360;2023-04-01T02:47:23;21.08;;;12.93;;
9815;SDS011;4947;44.526;11.360;2023-04-01T02:49:50;23.90;;;13.57;;
9815;SDS011;4947;44.526;11.360;2023-04-01T02:52:22;25.73;;;14.57;;
9815;SDS011;4947;44.526;11.360;2023-04-01T02:54:51;26.55;;;14.73;;
9815;SDS011;4947;44.526;11.360;2023-04-01T02:57:19;25.63;;;14.90;;
9815;SDS011;4947;44.526;11.360;2023-04-01T02:59:46;27.77;;;15.05;;
9815;SDS011;4947;44.526;11.360;2023-04-01T03:02:14;22.23;;;14.57;;
9815;SDS011;4947;44.526;11.360;2023-04-01T03:04:42;21.42;;;14.02;;
9815;SDS011;4947;44.526;11.360;2023-04-01T03:07:10;19.75;;;13.90;;
9815;SDS011;4947;44.526;11.360;2023-04-01T03:09:38;27.80;;;15.18;;
9815;SDS011;4947;44.526;11.360;2023-04-01T03:12:07;22.85;;;15.30;;
9815;SDS011;4947;44.526;11.360;2023-04-01T03:14:34;23.15;;;14.43;;
9815;SDS011;4947;44.526;11.360;2023-04-01T03:17:02;27.08;;;14.55;;
9815;SDS011;4947;44.526;11.360;2023-04-01T03:19:30;25.95;;;14.25;;
9815;SDS011;4947;44.526;11.360;2023-04-01T03:21:58;24.35;;;15.35;;
9815;SDS011;4947;44.526;11.360;2023-04-01T03:24:25;22.17;;;13.60;;
9815;SDS011;4947;44.526;11.360;2023-04-01T03:26:53;25.23;;;14.35;;
9815;SDS011;4947;44.526;11.360;2023-04-01T03:29:22;23.00;;;14.90;;
9815;SDS011;4947;44.526;11.360;2023-04-01T03:31:50;24.40;;;13.63;;
9815;SDS011;4947;44.526;11.360;2023-04-01T03:34:18;23.40;;;13.93;;
9815;SDS011;4947;44.526;11.360;2023-04-01T03:36:46;24.13;;;13.95;;
9815;SDS011;4947;44.526;11.360;2023-04-01T03:39:13;22.80;;;13.63;;
9815;SDS011;4947;44.526;11.360;2023-04-01T03:41:43;23.52;;;14.10;;
9815;SDS011;4947;44.526;11.360;2023-04-01T03:44:11;24.55;;;13.40;;
9815;SDS011;4947;44.526;11.360;2023-04-01T03:46:40;20.25;;;13.65;;
9815;SDS011;4947;44.526;11.360;2023-04-01T03:49:08;22.08;;;12.98;;
9815;SDS011;4947;44.526;11.360;2023-04-01T03:51:36;20.20;;;11.98;;
9815;SDS011;4947;44.526;11.360;2023-04-01T03:54:04;17.58;;;12.43;;
9815;SDS011;4947;44.526;11.360;2023-04-01T03:56:32;20.48;;;12.35;;
9815;SDS011;4947;44.526;11.360;2023-04-01T03:59:01;23.63;;;13.27;;
9815;SDS011;4947;44.526;11.360;2023-04-01T04:01:30;23.73;;;13.60;;
9815;SDS011;4947;44.526;11.360;2023-04-01T04:03:59;20.80;;;13.75;;
9815;SDS011;4947;44.526;11.360;2023-04-01T04:06:27;21.42;;;12.98;;
9815;SDS011;4947;44.526;11.360;2023-04-01T04:08:54;20.02;;;13.30;;
9815;SDS011;4947;44.526;11.360;2023-04-01T04:11:22;22.30;;;14.43;;
9815;SDS011;4947;44.526;11.360;2023-04-01T04:13:49;20.85;;;13.07;;
9815;SDS011;4947;44.526;11.360;2023-04-01T04:16:19;23.48;;;14.07;;
9815;SDS011;4947;44.526;11.360;2023-04-01T04:18:47;21.63;;;14.57;;
9815;SDS011;4947;44.526;11.360;2023-04-01T04:21:15;26.83;;;15.40;;
9815;SDS011;4947;44.526;11.360;2023-04-01T04:23:43;30.25;;;17.40;;
9815;SDS011;4947;44.526;11.360;2023-04-01T04:26:11;31.77;;;16.58;;
9815;SDS011;4947;44.526;11.360;2023-04-01T04:28:41;32.85;;;16.95;;
9815;SDS011;4947;44.526;11.360;2023-04-01T04:31:09;23.92;;;16.40;;
9815;SDS011;4947;44.526;11.360;2023-04-01T04:33:38;26.45;;;15.80;;
9815;SDS011;4947;44.526;11.360;2023-04-01T04:36:05;27.58;;;16.77;;
9815;SDS011;4947;44.526;11.360;2023-04-01T04:38:35;26.02;;;17.10;;
9815;SDS011;4947;44.526;11.360;2023-04-01T04:41:03;25.02;;;15.15;;
9815;SDS011;4947;44.526;11.360;2023-04-01T04:43:34;24.08;;;14.73;;
9815;SDS011;4947;44.526;11.360;2023-04-01T04:46:03;26.77;;;15.48;;
9815;SDS011;4947;44.526;11.360;2023-04-01T04:48:32;23.80;;;15.25;;
9815;SDS011;4947;44.526;11.360;2023-04-01T04:51:00;21.95;;;14.13;;
9815;SDS011;4947;44.526;11.360;2023-04-01T04:53:27;20.40;;;14.57;;
9815;SDS011;4947;44.526;11.360;2023-04-01T04:55:56;20.55;;;13.45;;
9815;SDS011;4947;44.526;11.360;2023-04-01T04:58:24;25.02;;;13.98;;
9815;SDS011;4947;44.526;11.360;2023-04-01T05:00:52;21.05;;;13.88;;
9815;SDS011;4947;44.526;11.360;2023-04-01T05:03:19;26.83;;;12.80;;
9815;SDS011;4947;44.526;11.360;2023-04-01T05:05:48;21.45;;;14.30;;
9815;SDS011;4947;44.526;11.360;2023-04-01T05:08:16;21.02;;;14.02;;
9815;SDS011;4947;44.526;11.360;2023-04-01T05:10:44;22.48;;;13.65;;
9815;SDS011;4947;44.526;11.360;2023-04-01T05:13:13;20.50;;;13.30;;
9815;SDS011;4947;44.526;11.360;2023-04-01T05:15:41;26.75;;;13.77;;
9815;SDS011;4947;44.526;11.360;2023-04-01T05:18:09;18.42;;;11.90;;
9815;SDS011;4947;44.526;11.360;2023-04-01T05:20:36;20.38;;;12.07;;
9815;SDS011;4947;44.526;11.360;2023-04-01T05:23:04;19.40;;;11.98;;
9815;SDS011;4947;44.526;11.360;2023-04-01T05:25:32;17.55;;;11.63;;
9815;SDS011;4947;44.526;11.360;2023-04-01T05:27:59;20.27;;;12.50;;
9815;SDS011;4947;44.526;11.360;2023-04-01T05:30:28;17.02;;;10.32;;
9815;SDS011;4947;44.526;11.360;2023-04-01T05:32:56;18.52;;;9.80;;
9815;SDS011;4947;44.526;11.360;2023-04-01T05:35:28;19.23;;;10.02;;
9815;SDS011;4947;44.526;11.360;2023-04-01T05:37:55;19.38;;;9.98;;
9815;SDS011;4947;44.526;11.360;2023-04-01T05:40:23;15.60;;;10.13;;
9815;SDS011;4947;44.526;11.360;2023-04-01T05:42:50;17.58;;;9.63;;
9815;SDS011;4947;44.526;11.360;2023-04-01T05:45:18;17.40;;;9.60;;
9815;SDS011;4947;44.526;11.360;2023-04-01T05:47:46;16.10;;;10.40;;
9815;SDS011;4947;44.526;11.360;2023-04-01T05:50:14;14.75;;;10.52;;
9815;SDS011;4947;44.526;11.360;2023-04-01T05:52:42;18.27;;;11.73;;
9815;SDS011;4947;44.526;11.360;2023-04-01T05:55:10;18.02;;;11.68;;
9815;SDS011;4947;44.526;11.360;2023-04-01T05:57:38;16.60;;;10.98;;
9815;SDS011;4947;44.526;11.360;2023-04-01T06:00:06;20.23;;;12.45;;
9815;SDS011;4947;44.526;11.360;2023-04-01T06:02:34;19.00;;;10.90;;
9815;SDS011;4947;44.526;11.360;2023-04-01T06:05:09;12.75;;;8.35;;
9815;SDS011;4947;44.526;11.360;2023-04-01T06:07:39;17.40;;;8.23;;
9815;SDS011;4947;44.526;11.360;2023-04-01T06:10:10;16.38;;;8.70;;
9815;SDS011;4947;44.526;11.360;2023-04-01T06:12:44;17.90;;;8.88;;
9815;SDS011;4947;44.526;11.360;2023-04-01T06:15:19;13.90;;;7.65;;
9815;SDS011;4947;44.526;11.360;2023-04-01T06:18:00;13.20;;;8.15;;
9815;SDS011;4947;44.526;11.360;2023-04-01T06:20:46;10.10;;;6.47;;
9815;SDS011;4947;44.526;11.360;2023-04-01T06:23:26;8.13;;;5.60;;
9815;SDS011;4947;44.526;11.360;2023-04-01T06:26:18;6.50;;;4.82;;
9815;SDS011;4947;44.526;11.360;2023-04-01T06:31:51;10.73;;;5.55;;
9815;SDS011;4947;44.526;11.360;2023-04-01T06:34:49;14.45;;;7.65;;
9815;SDS011;4947;44.526;11.360;2023-04-01T06:40:36;22.55;;;13.85;;
9815;SDS011;4947;44.526;11.360;2023-04-01T06:43:14;26.27;;;15.82;;
9815;SDS011;4947;44.526;11.360;2023-04-01T06:45:49;28.48;;;16.67;;
9815;SDS011;4947;44.526;11.360;2023-04-01T06:48:28;25.48;;;15.05;;
9815;SDS011;4947;44.526;11.360;2023-04-01T06:51:09;25.60;;;15.35;;
9815;SDS011;4947;44.526;11.360;2023-04-01T06:53:49;21.58;;;15.05;;
9815;SDS011;4947;44.526;11.360;2023-04-01T06:56:21;23.05;;;14.27;;
9815;SDS011;4947;44.526;11.360;2023-04-01T06:58:54;23.00;;;12.57;;
9815;SDS011;4947;44.526;11.360;2023-04-01T07:01:30;19.35;;;12.32;;
9815;SDS011;4947;44.526;11.360;2023-04-01T07:04:02;17.40;;;11.98;;
9815;SDS011;4947;44.526;11.360;2023-04-01T07:06:35;20.88;;;13.10;;
9815;SDS011;4947;44.526;11.360;2023-04-01T07:09:10;20.40;;;11.70;;
9815;SDS011;4947;44.526;11.360;2023-04-01T07:11:40;18.35;;;11.35;;
9815;SDS011;4947;44.526;11.360;2023-04-01T07:14:10;18.23;;;12.48;;
9815;SDS011;4947;44.526;11.360;2023-04-01T07:16:43;19.35;;;12.65;;
9815;SDS011;4947;44.526;11.360;2023-04-01T07:19:16;19.23;;;11.75;;
9815;SDS011;4947;44.526;11.360;2023-04-01T07:21:49;18.90;;;10.88;;
9815;SDS011;4947;44.526;11.360;2023-04-01T07:24:23;15.40;;;11.38;;
9815;SDS011;4947;44.526;11.360;2023-04-01T07:26:54;17.13;;;10.98;;
9815;SDS011;4947;44.526;11.360;2023-04-01T07:29:22;14.75;;;10.63;;
9815;SDS011;4947;44.526;11.360;2023-04-01T07:34:45;15.07;;;10.52;;
9815;SDS011;4947;44.526;11.360;2023-04-01T07:37:25;15.55;;;9.90;;
9815;SDS011;4947;44.526;11.360;2023-04-01T07:40:01;19.88;;;10.50;;
9815;SDS011;4947;44.526;11.360;2023-04-01T07:42:40;13.77;;;10.68;;
9815;SDS011;4947;44.526;11.360;2023-04-01T07:45:23;10.75;;;8.43;;
9815;SDS011;4947;44.526;11.360;2023-04-01T07:48:01;13.38;;;10.05;;
9815;SDS011;4947;44.526;11.360;2023-04-01T07:50:41;17.35;;;9.95;;
9815;SDS011;4947;44.526;11.360;2023-04-01T07:53:19;16.20;;;8.70;;
9815;SDS011;4947;44.526;11.360;2023-04-01T07:55:56;13.32;;;8.52;;
9815;SDS011;4947;44.526;11.360;2023-04-01T07:58:32;10.48;;;8.05;;
9815;SDS011;4947;44.526;11.360;2023-04-01T08:01:13;11.52;;;7.63;;
9815;SDS011;4947;44.526;11.360;2023-04-01T08:03:53;13.00;;;8.48;;
9815;SDS011;4947;44.526;11.360;2023-04-01T08:06:45;12.60;;;7.65;;
9815;SDS011;4947;44.526;11.360;2023-04-01T08:09:22;15.27;;;8.90;;
9815;SDS011;4947;44.526;11.360;2023-04-01T08:12:02;8.57;;;7.38;;
9815;SDS011;4947;44.526;11.360;2023-04-01T08:14:40;12.05;;;8.35;;
9815;SDS011;4947;44.526;11.360;2023-04-01T08:17:18;14.10;;;8.35;;
9815;SDS011;4947;44.526;11.360;2023-04-01T08:19:56;10.00;;;8.00;;
9815;SDS011;4947;44.526;11.360;2023-04-01T08:22:35;14.35;;;8.38;;
9815;SDS011;4947;44.526;11.360;2023-04-01T08:25:09;10.05;;;8.00;;
9815;SDS011;4947;44.526;11.360;2023-04-01T08:27:46;12.70;;;7.90;;
9815;SDS011;4947;44.526;11.360;2023-04-01T08:30:19;12.45;;;7.43;;
9815;SDS011;4947;44.526;11.360;2023-04-01T08:32:50;15.60;;;7.93;;
9815;SDS011;4947;44.526;11.360;2023-04-01T08:35:26;11.23;;;7.60;;
9815;SDS011;4947;44.526;11.360;2023-04-01T08:37:59;13.10;;;8.00;;
9815;SDS011;4947;44.526;11.360;2023-04-01T08:40:37;11.60;;;7.85;;
9815;SDS011;4947;44.526;11.360;2023-04-01T08:43:25;12.80;;;7.25;;
9815;SDS011;4947;44.526;11.360;2023-04-01T08:49:30;11.13;;;7.35;;
9815;SDS011;4947;44.526;11.360;2023-04-01T08:52:20;14.20;;;7.18;;
9815;SDS011;4947;44.526;11.360;2023-04-01T08:57:58;10.77;;;7.68;;
9815;SDS011;4947;44.526;11.360;2023-04-01T09:00:36;10.27;;;7.22;;
9815;SDS011;4947;44.526;11.360;2023-04-01T09:03:14;9.57;;;6.63;;
9815;SDS011;4947;44.526;11.360;2023-04-01T09:09:02;9.70;;;7.00;;
9815;SDS011;4947;44.526;11.360;2023-04-01T09:11:59;10.15;;;7.22;;
9815;SDS011;4947;44.526;11.360;2023-04-01T09:17:45;9.65;;;7.25;;
9815;SDS011;4947;44.526;11.360;2023-04-01T09:20:38;9.60;;;7.25;;
9815;SDS011;4947;44.526;11.360;2023-04-01T09:23:42;10.25;;;7.20;;
9815;SDS011;4947;44.526;11.360;2023-04-01T09:26:37;12.50;;;8.27;;
9815;SDS011;4947;44.526;11.360;2023-04-01T09:29:22;8.77;;;6.78;;
9815;SDS011;4947;44.526;11.360;2023-04-01T09:32:04;8.20;;;6.30;;
9815;SDS011;4947;44.526;11.360;2023-04-01T09:34:53;11.07;;;7.30;;
9815;SDS011;4947;44.526;11.360;2023-04-01T09:37:27;13.38;;;6.93;;
9815;SDS011;4947;44.526;11.360;2023-04-01T09:40:15;10.85;;;6.82;;
9815;SDS011;4947;44.526;11.360;2023-04-01T09:42:45;11.82;;;6.45;;
9815;SDS011;4947;44.526;11.360;2023-04-01T09:45:33;9.50;;;7.35;;
9815;SDS011;4947;44.526;11.360;2023-04-01T09:48:15;12.68;;;6.45;;
9815;SDS011;4947;44.526;11.360;2023-04-01T09:51:12;9.73;;;6.53;;
9815;SDS011;4947;44.526;11.360;2023-04-01T09:53:54;7.60;;;6.20;;
9815;SDS011;4947;44.526;11.360;2023-04-01T10:09:32;11.40;;;6.53;;
9815;SDS011;4947;44.526;11.360;2023-04-01T10:12:31;7.60;;;5.60;;
9815;SDS011;4947;44.526;11.360;2023-04-01T10:15:30;6.10;;;5.50;;
9815;SDS011;4947;44.526;11.360;2023-04-01T10:21:22;6.75;;;5.13;;
9815;SDS011;4947;44.526;11.360;2023-04-01T10:24:21;8.65;;;5.18;;
9815;SDS011;4947;44.526;11.360;2023-04-01T10:30:04;8.30;;;5.10;;
9815;SDS011;4947;44.526;11.360;2023-04-01T10:33:10;6.90;;;4.82;;
9815;SDS011;4947;44.526;11.360;2023-04-01T10:39:36;5.60;;;4.63;;
9815;SDS011;4947;44.526;11.360;2023-04-01T10:42:39;6.43;;;3.63;;
9815;SDS011;4947;44.526;11.360;2023-04-01T10:52:15;5.30;;;3.67;;
9815;SDS011;4947;44.526;11.360;2023-04-01T10:58:16;9.23;;;3.58;;
9815;SDS011;4947;44.526;11.360;2023-04-01T11:04:10;7.75;;;4.05;;
9815;SDS011;4947;44.526;11.360;2023-04-01T11:07:19;5.95;;;4.40;;
9815;SDS011;4947;44.526;11.360;2023-04-01T11:10:15;6.03;;;3.95;;
9815;SDS011;4947;44.526;11.360;2023-04-01T11:16:17;10.27;;;3.75;;
9815;SDS011;4947;44.526;11.360;2023-04-01T11:19:03;5.35;;;3.35;;
9815;SDS011;4947;44.526;11.360;2023-04-01T11:21:46;4.78;;;3.92;;
9815;SDS011;4947;44.526;11.360;2023-04-01T11:27:31;4.72;;;2.45;;
9815;SDS011;4947;44.526;11.360;2023-04-01T11:30:12;4.53;;;2.75;;
9815;SDS011;4947;44.526;11.360;2023-04-01T11:32:49;7.15;;;3.55;;
9815;SDS011;4947;44.526;11.360;2023-04-01T11:41:09;4.80;;;2.60;;
9815;SDS011;4947;44.526;11.360;2023-04-01T11:43:49;5.03;;;2.85;;
9815;SDS011;4947;44.526;11.360;2023-04-01T11:46:33;2.72;;;2.50;;
9815;SDS011;4947;44.526;11.360;2023-04-01T11:49:14;4.32;;;2.50;;
9815;SDS011;4947;44.526;11.360;2023-04-01T11:51:58;5.05;;;2.80;;
9815;SDS011;4947;44.526;11.360;2023-04-01T11:54:48;2.95;;;2.63;;
9815;SDS011;4947;44.526;11.360;2023-04-01T11:57:34;5.50;;;1.90;;
9815;SDS011;4947;44.526;11.360;2023-04-01T12:00:14;2.80;;;2.13;;
9815;SDS011;4947;44.526;11.360;2023-04-01T12:03:10;3.50;;;1.90;;
9815;SDS011;4947;44.526;11.360;2023-04-01T12:05:54;2.90;;;2.10;;
9815;SDS011;4947;44.526;11.360;2023-04-01T12:08:31;3.53;;;2.13;;
9815;SDS011;4947;44.526;11.360;2023-04-01T12:11:08;3.08;;;2.10;;
9815;SDS011;4947;44.526;11.360;2023-04-01T12:13:45;3.80;;;2.30;;
9815;SDS011;4947;44.526;11.360;2023-04-01T12:16:22;3.10;;;2.05;;
9815;SDS011;4947;44.526;11.360;2023-04-01T12:19:04;3.28;;;2.40;;
9815;SDS011;4947;44.526;11.360;2023-04-01T12:21:43;2.80;;;2.42;;
9815;SDS011;4947;44.526;11.360;2023-04-01T12:30:19;1.95;;;1.80;;
9815;SDS011;4947;44.526;11.360;2023-04-01T12:32:56;2.10;;;1.75;;
9815;SDS011;4947;44.526;11.360;2023-04-01T12:35:42;5.72;;;2.10;;
9815;SDS011;4947;44.526;11.360;2023-04-01T12:38:23;3.58;;;2.20;;
9815;SDS011;4947;44.526;11.360;2023-04-01T12:41:08;2.67;;;1.95;;
9815;SDS011;4947;44.526;11.360;2023-04-01T12:46:32;3.10;;;1.80;;
9815;SDS011;4947;44.526;11.360;2023-04-01T12:49:23;2.22;;;1.98;;
9815;SDS011;4947;44.526;11.360;2023-04-01T12:52:27;3.75;;;2.47;;
9815;SDS011;4947;44.526;11.360;2023-04-01T12:58:06;7.80;;;1.75;;
9815;SDS011;4947;44.526;11.360;2023-04-01T13:04:00;2.83;;;1.90;;
9815;SDS011;4947;44.526;11.360;2023-04-01T13:07:14;2.70;;;1.85;;
9815;SDS011;4947;44.526;11.360;2023-04-01T13:09:55;2.38;;;2.00;;
9815;SDS011;4947;44.526;11.360;2023-04-01T13:12:33;3.42;;;1.88;;
9815;SDS011;4947;44.526;11.360;2023-04-01T13:15:20;2.97;;;1.90;;
9815;SDS011;4947;44.526;11.360;2023-04-01T13:17:57;1.77;;;1.58;;
9815;SDS011;4947;44.526;11.360;2023-04-01T13:20:35;3.03;;;2.22;;
9815;SDS011;4947;44.526;11.360;2023-04-01T13:23:16;1.23;;;1.13;;
9815;SDS011;4947;44.526;11.360;2023-04-01T13:25:58;2.42;;;1.42;;
9815;SDS011;4947;44.526;11.360;2023-04-01T13:28:32;1.42;;;1.33;;
9815;SDS011;4947;44.526;11.360;2023-04-01T13:31:07;2.28;;;1.50;;
9815;SDS011;4947;44.526;11.360;2023-04-01T13:33:55;2.22;;;1.70;;
9815;SDS011;4947;44.526;11.360;2023-04-01T13:36:34;1.77;;;1.58;;
9815;SDS011;4947;44.526;11.360;2023-04-01T13:39:17;1.33;;;1.23;;
9815;SDS011;4947;44.526;11.360;2023-04-01T13:42:02;2.20;;;1.33;;
9815;SDS011;4947;44.526;11.360;2023-04-01T13:44:40;1.73;;;1.30;;
9815;SDS011;4947;44.526;11.360;2023-04-01T13:47:23;2.17;;;1.20;;
9815;SDS011;4947;44.526;11.360;2023-04-01T13:50:12;1.75;;;1.30;;
9815;SDS011;4947;44.526;11.360;2023-04-01T13:53:04;5.72;;;1.35;;
9815;SDS011;4947;44.526;11.360;2023-04-01T13:55:57;1.83;;;1.70;;
9815;SDS011;4947;44.526;11.360;2023-04-01T14:01:23;1.63;;;1.20;;
9815;SDS011;4947;44.526;11.360;2023-04-01T14:04:06;3.20;;;1.40;;
9815;SDS011;4947;44.526;11.360;2023-04-01T14:07:12;2.65;;;1.50;;
9815;SDS011;4947;44.526;11.360;2023-04-01T14:09:54;5.70;;;1.55;;
9815;SDS011;4947;44.526;11.360;2023-04-01T14:12:34;1.40;;;1.30;;
9815;SDS011;4947;44.526;11.360;2023-04-01T14:15:20;2.90;;;1.65;;
9815;SDS011;4947;44.526;11.360;2023-04-01T14:18:16;1.35;;;1.25;;
9815;SDS011;4947;44.526;11.360;2023-04-01T14:21:00;2.30;;;1.67;;
9815;SDS011;4947;44.526;11.360;2023-04-01T14:23:54;6.28;;;2.13;;
9815;SDS011;4947;44.526;11.360;2023-04-01T14:26:43;1.88;;;1.77;;
9815;SDS011;4947;44.526;11.360;2023-04-01T14:29:36;3.47;;;2.50;;
9815;SDS011;4947;44.526;11.360;2023-04-01T14:32:19;2.20;;;1.80;;
9815;SDS011;4947;44.526;11.360;2023-04-01T14:34:56;2.42;;;1.90;;
9815;SDS011;4947;44.526;11.360;2023-04-01T14:37:36;2.38;;;2.17;;
9815;SDS011;4947;44.526;11.360;2023-04-01T14:40:26;2.47;;;1.80;;
9815;SDS011;4947;44.526;11.360;2023-04-01T14:42:56;3.03;;;2.20;;
9815;SDS011;4947;44.526;11.360;2023-04-01T14:45:53;2.13;;;1.88;;
9815;SDS011;4947;44.526;11.360;2023-04-01T14:48:34;3.28;;;2.30;;
9815;SDS011;4947;44.526;11.360;2023-04-01T14:51:09;2.47;;;2.05;;
9815;SDS011;4947;44.526;11.360;2023-04-01T14:53:42;2.72;;;1.90;;
9815;SDS011;4947;44.526;11.360;2023-04-01T14:59:07;2.38;;;2.15;;
9815;SDS011;4947;44.526;11.360;2023-04-01T15:01:39;4.22;;;1.90;;
9815;SDS011;4947;44.526;11.360;2023-04-01T15:04:20;3.97;;;2.13;;
9815;SDS011;4947;44.526;11.360;2023-04-01T15:07:11;2.30;;;2.00;;
9815;SDS011;4947;44.526;11.360;2023-04-01T15:09:55;2.30;;;2.00;;
9815;SDS011;4947;44.526;11.360;2023-04-01T15:12:29;4.25;;;2.17;;
9815;SDS011;4947;44.526;11.360;2023-04-01T15:15:11;3.13;;;2.33;;
9815;SDS011;4947;44.526;11.360;2023-04-01T15:17:55;2.40;;;1.90;;
9815;SDS011;4947;44.526;11.360;2023-04-01T15:20:39;1.80;;;1.70;;
9815;SDS011;4947;44.526;11.360;2023-04-01T15:23:23;6.03;;;1.90;;
9815;SDS011;4947;44.526;11.360;2023-04-01T15:26:12;3.45;;;1.83;;
9815;SDS011;4947;44.526;11.360;2023-04-01T15:28:51;3.58;;;1.73;;
9815;SDS011;4947;44.526;11.360;2023-04-01T15:31:31;2.10;;;1.73;;
9815;SDS011;4947;44.526;11.360;2023-04-01T15:34:13;1.50;;;1.40;;
9815;SDS011;4947;44.526;11.360;2023-04-01T15:36:58;1.77;;;1.60;;
9815;SDS011;4947;44.526;11.360;2023-04-01T15:39:37;2.13;;;1.60;;
9815;SDS011;4947;44.526;11.360;2023-04-01T15:42:16;2.38;;;1.70;;
9815;SDS011;4947;44.526;11.360;2023-04-01T15:44:55;2.58;;;1.80;;
9815;SDS011;4947;44.526;11.360;2023-04-01T15:47:36;2.63;;;1.90;;
9815;SDS011;4947;44.526;11.360;2023-04-01T15:53:11;3.53;;;1.85;;
9815;SDS011;4947;44.526;11.360;2023-04-01T15:55:50;2.55;;;1.75;;
9815;SDS011;4947;44.526;11.360;2023-04-01T15:58:33;1.92;;;1.70;;
9815;SDS011;4947;44.526;11.360;2023-04-01T16:01:14;5.90;;;1.98;;
9815;SDS011;4947;44.526;11.360;2023-04-01T16:03:51;1.88;;;1.58;;
9815;SDS011;4947;44.526;11.360;2023-04-01T16:06:24;2.15;;;1.40;;
9815;SDS011;4947;44.526;11.360;2023-04-01T16:09:18;4.65;;;1.85;;
9815;SDS011;4947;44.526;11.360;2023-04-01T16:12:03;3.05;;;1.70;;
9815;SDS011;4947;44.526;11.360;2023-04-01T16:14:38;5.40;;;2.10;;
9815;SDS011;4947;44.526;11.360;2023-04-01T16:17:19;5.30;;;1.80;;
9815;SDS011;4947;44.526;11.360;2023-04-01T16:19:55;4.55;;;1.63;;
9815;SDS011;4947;44.526;11.360;2023-04-01T16:22:27;8.07;;;1.90;;
9815;SDS011;4947;44.526;11.360;2023-04-01T16:25:05;4.25;;;1.60;;
9815;SDS011;4947;44.526;11.360;2023-04-01T16:27:46;5.07;;;1.73;;
9815;SDS011;4947;44.526;11.360;2023-04-01T16:30:25;5.82;;;2.22;;
9815;SDS011;4947;44.526;11.360;2023-04-01T16:33:01;5.20;;;2.05;;
9815;SDS011;4947;44.526;11.360;2023-04-01T16:35:35;10.50;;;2.03;;
9815;SDS011;4947;44.526;11.360;2023-04-01T16:38:12;8.10;;;1.75;;
9815;SDS011;4947;44.526;11.360;2023-04-01T16:40:50;2.80;;;1.45;;
9815;SDS011;4947;44.526;11.360;2023-04-01T16:43:28;5.85;;;1.52;;
9815;SDS011;4947;44.526;11.360;2023-04-01T16:46:14;1.80;;;1.45;;
9815;SDS011;4947;44.526;11.360;2023-04-01T16:48:58;5.60;;;2.08;;
9815;SDS011;4947;44.526;11.360;2023-04-01T16:51:37;2.67;;;1.40;;
9815;SDS011;4947;44.526;11.360;2023-04-01T16:54:14;3.72;;;1.50;;
9815;SDS011;4947;44.526;11.360;2023-04-01T16:56:54;3.83;;;1.10;;
9815;SDS011;4947;44.526;11.360;2023-04-01T16:59:24;2.72;;;0.95;;
9815;SDS011;4947;44.526;11.360;2023-04-01T17:02:02;4.00;;;1.50;;
9815;SDS011;4947;44.526;11.360;2023-04-01T17:04:37;1.20;;;1.10;;
9815;SDS011;4947;44.526;11.360;2023-04-01T17:07:11;7.80;;;1.92;;
9815;SDS011;4947;44.526;11.360;2023-04-01T17:09:51;3.75;;;1.10;;
9815;SDS011;4947;44.526;11.360;2023-04-01T17:12:30;3.97;;;1.48;;
9815;SDS011;4947;44.526;11.360;2023-04-01T17:15:05;1.88;;;1.35;;
9815;SDS011;4947;44.526;11.360;2023-04-01T17:17:45;4.47;;;1.27;;
9815;SDS011;4947;44.526;11.360;2023-04-01T17:20:26;2.17;;;1.40;;
9815;SDS011;4947;44.526;11.360;2023-04-01T17:23:04;1.90;;;1.20;;
9815;SDS011;4947;44.526;11.360;2023-04-01T17:25:49;3.90;;;1.40;;